Time;durP1;ratioP1;P1;durP2;ratioP2;P2;SDS_P1;SDS_P2;PMS_P1;PMS_P2;Temp;Humidity;BMP_temperature;BMP_pressure;BME280_temperature;BME280_humidity;BME280_pressure;Samples;Min_cycle;Max_cycle;Signal;HPM_P1;HPM_P2
2023/02/02 00:00:44;;;;;;;9.93;3.20;;;;;;;8.12;100.00;100996.53;6166715;28;20226;-68
2023/02/02 00:04:05;;;;;;;8.17;3.50;;;;;;;8.24;100.00;101002.81;6182407;28;20249;-69
2023/02/02 00:07:26;;;;;;;10.87;4.17;;;;;;;8.24;100.00;101005.50;6171946;28;20229;-68
2023/02/02 00:10:49;;;;;;;13.77;5.87;;;;;;;8.48;100.00;100999.09;6165774;28;20569;-68
2023/02/02 00:14:10;;;;;;;6.33;2.37;;;;;;;8.42;100.00;101020.22;6188832;28;20301;-67
2023/02/02 00:17:31;;;;;;;7.93;3.07;;;;;;;8.63;100.00;101024.78;6180249;28;20542;-67
2023/02/02 00:20:52;;;;;;;18.37;3.13;;;;;;;8.51;100.00;101032.94;6168392;28;20253;-68
2023/02/02 00:24:16;;;;;;;10.23;4.27;;;;;;;8.43;100.00;101044.25;6175876;28;20242;-69
2023/02/02 00:27:39;;;;;;;9.20;4.80;;;;;;;8.46;100.00;101035.97;6180919;28;20233;-68
2023/02/02 00:30:59;;;;;;;8.77;2.57;;;;;;;8.42;100.00;101049.75;6173788;28;20253;-69
2023/02/02 00:34:21;;;;;;;5.70;2.80;;;;;;;8.48;100.00;101047.47;6185914;28;20348;-68
2023/02/02 00:37:42;;;;;;;4.43;3.33;;;;;;;8.45;100.00;101045.00;6183476;28;20233;-69
2023/02/02 00:41:03;;;;;;;6.57;1.93;;;;;;;8.35;100.00;101060.13;6179361;28;20236;-68
2023/02/02 00:48:05;;;;;;;8.43;2.60;;;;;;;8.24;100.00;101068.09;6178302;28;20769;-68
2023/02/02 00:51:25;;;;;;;7.93;4.23;;;;;;;8.34;100.00;101074.53;6177019;28;20261;-68
2023/02/02 00:54:46;;;;;;;5.40;2.77;;;;;;;8.27;100.00;101067.91;6181421;28;20234;-68
2023/02/02 00:58:07;;;;;;;5.90;2.80;;;;;;;8.38;100.00;101070.63;6183622;28;20254;-68
2023/02/02 01:01:29;;;;;;;14.77;3.67;;;;;;;8.32;100.00;101081.84;6173108;28;22054;-68
2023/02/02 01:04:52;;;;;;;4.13;2.43;;;;;;;8.25;100.00;101082.38;6185003;28;20698;-68
2023/02/02 01:08:13;;;;;;;17.07;4.30;;;;;;;8.52;100.00;101083.00;6187208;28;20753;-68
2023/02/02 01:11:33;;;;;;;8.07;2.87;;;;;;;8.26;100.00;101090.34;6168517;28;20234;-69
2023/02/02 01:14:54;;;;;;;7.47;2.77;;;;;;;8.13;100.00;101097.59;6174153;28;20269;-69
2023/02/02 01:18:17;;;;;;;2.47;2.07;;;;;;;8.06;100.00;101080.22;6182861;28;20238;-69
2023/02/02 01:21:37;;;;;;;6.97;2.57;;;;;;;8.07;100.00;101087.31;6175879;28;20237;-68
2023/02/02 01:24:58;;;;;;;8.13;3.30;;;;;;;8.14;100.00;101091.25;6180059;28;20238;-68
2023/02/02 01:28:19;;;;;;;13.77;2.40;;;;;;;8.25;100.00;101099.38;6165407;28;20461;-68
2023/02/02 01:31:41;;;;;;;7.70;2.37;;;;;;;8.26;100.00;101111.00;6149332;28;20308;-69
2023/02/02 01:35:04;;;;;;;6.27;2.67;;;;;;;8.21;100.00;101103.25;6185484;28;20320;-68
2023/02/02 01:38:25;;;;;;;13.70;4.57;;;;;;;8.27;100.00;101123.44;6178652;28;20237;-68
2023/02/02 01:41:46;;;;;;;12.23;2.33;;;;;;;8.27;100.00;101128.81;6170440;28;20233;-68
2023/02/02 01:45:21;;;;;;;8.03;2.47;;;;;;;8.09;100.00;101133.72;6180928;28;20229;-69
2023/02/02 01:48:46;;;;;;;8.83;3.20;;;;;;;8.19;100.00;101147.28;6166493;28;20226;-69
2023/02/02 01:52:10;;;;;;;7.37;2.57;;;;;;;8.18;100.00;101149.13;6179684;28;20237;-68
2023/02/02 01:55:38;;;;;;;6.27;2.30;;;;;;;8.11;100.00;101152.38;6179591;28;20225;-69
2023/02/02 01:59:00;;;;;;;8.33;2.57;;;;;;;8.13;100.00;101163.88;6173960;28;20229;-69
2023/02/02 02:02:21;;;;;;;11.23;2.73;;;;;;;8.16;100.00;101172.53;6166606;28;20233;-69
2023/02/02 02:05:45;;;;;;;5.67;3.53;;;;;;;8.25;100.00;101169.22;6170240;28;20237;-69
2023/02/02 02:09:11;;;;;;;6.17;2.37;;;;;;;8.20;100.00;101179.41;6165716;28;20324;-68
2023/02/02 02:12:33;;;;;;;5.80;1.60;;;;;;;8.20;100.00;101181.25;6177990;28;20337;-68
2023/02/02 02:16:18;;;;;;;7.77;3.07;;;;;;;8.27;100.00;101198.63;6167358;28;20600;-68
2023/02/02 02:28:42;;;;;;;4.97;3.00;;;;;;;7.95;100.00;101217.06;6166918;28;20377;-67
2023/02/02 02:32:20;;;;;;;3.80;1.83;;;;;;;7.96;100.00;101203.56;6177587;28;20599;-68
2023/02/02 02:35:48;;;;;;;8.87;3.33;;;;;;;8.08;100.00;101216.06;6169114;28;20313;-69
2023/02/02 02:39:16;;;;;;;18.17;3.70;;;;;;;7.92;100.00;101215.50;6174573;28;20213;-68
2023/02/02 02:42:42;;;;;;;8.13;3.47;;;;;;;7.89;100.00;101222.88;6180178;28;20244;-68
2023/02/02 02:46:04;;;;;;;10.37;3.93;;;;;;;7.87;100.00;101219.44;6168791;28;20328;-67
2023/02/02 02:49:27;;;;;;;5.70;2.00;;;;;;;7.97;100.00;101223.19;6153864;28;20230;-68
2023/02/02 02:52:53;;;;;;;8.17;2.90;;;;;;;7.95;100.00;101227.81;6171753;28;20630;-68
2023/02/02 02:56:21;;;;;;;6.73;2.57;;;;;;;8.11;100.00;101223.06;6166605;28;20245;-68
2023/02/02 02:59:52;;;;;;;4.80;2.63;;;;;;;8.21;100.00;101226.78;6183594;28;20312;-69
2023/02/02 03:03:22;;;;;;;13.63;6.07;;;;;;;8.38;100.00;101244.38;6169090;28;20237;-67
2023/02/02 03:06:51;;;;;;;4.27;3.53;;;;;;;8.36;100.00;101228.38;6174541;28;20229;-68
2023/02/02 03:10:17;;;;;;;3.93;2.10;;;;;;;8.52;100.00;101239.69;6163985;28;20229;-68
2023/02/02 03:13:39;;;;;;;5.40;2.50;;;;;;;8.39;100.00;101238.00;6180901;28;20229;-68
2023/02/02 03:17:00;;;;;;;3.70;1.97;;;;;;;8.39;100.00;101243.38;6170317;28;20288;-67
2023/02/02 03:20:21;;;;;;;6.73;3.90;;;;;;;8.21;100.00;101250.09;6157208;28;20234;-69
2023/02/02 03:23:43;;;;;;;8.13;1.97;;;;;;;8.34;100.00;101259.00;6171756;28;20321;-68
2023/02/02 03:27:04;;;;;;;9.80;2.73;;;;;;;8.52;100.00;101269.25;6171891;28;20658;-69
2023/02/02 03:30:25;;;;;;;8.30;2.93;;;;;;;8.17;100.00;101272.75;6173261;28;20237;-68
2023/02/02 03:33:47;;;;;;;2.63;1.80;;;;;;;8.34;100.00;101275.97;6155926;28;20250;-67
2023/02/02 03:37:08;;;;;;;2.70;1.73;;;;;;;8.24;100.00;101280.25;6172056;28;20241;-68
2023/02/02 03:40:30;;;;;;;5.53;1.70;;;;;;;8.37;100.00;101289.16;6178575;28;20238;-68
2023/02/02 03:43:51;;;;;;;3.13;2.17;;;;;;;8.06;100.00;101290.50;6170192;28;20221;-69
2023/02/02 03:47:12;;;;;;;6.47;2.30;;;;;;;8.36;100.00;101306.28;6182242;28;20229;-68
2023/02/02 03:50:33;;;;;;;5.37;4.70;;;;;;;8.21;100.00;101307.34;6185103;28;20240;-69
2023/02/02 03:53:54;;;;;;;2.90;2.00;;;;;;;8.04;100.00;101318.44;6185671;28;20226;-68
2023/02/02 03:57:16;;;;;;;2.87;2.27;;;;;;;8.02;100.00;101317.69;6180225;28;20262;-68
2023/02/02 04:00:37;;;;;;;3.53;2.70;;;;;;;8.10;100.00;101320.66;6179642;28;20237;-69
2023/02/02 04:03:59;;;;;;;2.83;1.43;;;;;;;8.46;100.00;101330.63;6165525;28;20672;-69
2023/02/02 04:07:19;;;;;;;3.13;1.70;;;;;;;8.15;100.00;101333.78;6156615;28;20342;-68
2023/02/02 04:10:41;;;;;;;2.73;1.73;;;;;;;8.10;100.00;101326.03;6171078;28;20234;-68
2023/02/02 04:14:03;;;;;;;4.43;1.73;;;;;;;7.90;100.00;101331.97;6188324;28;20241;-67
2023/02/02 04:17:24;;;;;;;9.13;2.83;;;;;;;8.18;100.00;101330.88;6186385;28;20741;-69
2023/02/02 04:20:45;;;;;;;4.73;1.50;;;;;;;8.39;100.00;101348.16;6169864;28;20716;-68
2023/02/02 04:24:07;;;;;;;3.57;2.83;;;;;;;8.03;100.00;101348.94;6188832;28;20340;-68
2023/02/02 04:27:30;;;;;;;5.30;2.27;;;;;;;8.06;100.00;101359.44;6179783;28;20233;-68
2023/02/02 04:30:53;;;;;;;7.90;2.13;;;;;;;8.08;100.00;101374.50;6169595;28;20683;-67
2023/02/02 04:34:14;;;;;;;3.30;1.67;;;;;;;8.06;100.00;101384.47;6189396;28;20226;-67
2023/02/02 04:37:35;;;;;;;4.20;2.07;;;;;;;7.96;100.00;101375.34;6169179;28;20234;-68
2023/02/02 04:40:56;;;;;;;4.17;1.43;;;;;;;7.94;100.00;101382.66;6176599;28;20229;-68
2023/02/02 04:44:17;;;;;;;2.60;2.07;;;;;;;8.21;100.00;101381.66;6186600;28;20612;-68
2023/02/02 04:47:39;;;;;;;7.00;1.70;;;;;;;8.14;100.00;101380.38;6170780;28;20631;-68
2023/02/02 04:51:02;;;;;;;8.03;2.93;;;;;;;7.85;100.00;101391.34;6175774;28;20592;-68
2023/02/02 04:54:22;;;;;;;4.37;1.97;;;;;;;8.11;100.00;101386.84;6192063;28;20312;-67
2023/02/02 04:57:44;;;;;;;12.13;3.03;;;;;;;8.20;100.00;101388.03;6159693;28;20234;-67
2023/02/02 05:01:09;;;;;;;10.77;2.40;;;;;;;8.23;100.00;101385.09;6173690;28;20237;-67
2023/02/02 05:04:31;;;;;;;7.30;1.73;;;;;;;8.12;100.00;101395.72;6192118;28;20230;-68
2023/02/02 05:07:51;;;;;;;3.53;1.87;;;;;;;8.08;100.00;101390.59;6188561;28;20228;-68
2023/02/02 05:11:16;;;;;;;4.23;3.70;;;;;;;8.20;100.00;101398.78;6178790;28;20624;-67
2023/02/02 05:14:37;;;;;;;7.93;2.00;;;;;;;7.94;100.00;101409.50;6188375;28;20229;-68
2023/02/02 05:17:58;;;;;;;6.40;1.70;;;;;;;8.34;100.00;101412.97;6183522;28;20228;-68
2023/02/02 05:21:21;;;;;;;8.60;2.37;;;;;;;8.16;100.00;101416.91;6174736;28;20222;-68
2023/02/02 05:24:42;;;;;;;3.43;2.97;;;;;;;8.57;100.00;101420.22;6188799;28;20633;-68
2023/02/02 05:28:03;;;;;;;3.97;1.77;;;;;;;8.54;100.00;101422.28;6185702;28;20242;-69
2023/02/02 05:31:24;;;;;;;3.00;1.87;;;;;;;8.40;100.00;101422.41;6170576;28;20238;-68
2023/02/02 05:34:45;;;;;;;2.53;1.73;;;;;;;8.36;100.00;101420.91;6176667;28;20681;-68
2023/02/02 05:38:07;;;;;;;3.13;1.90;;;;;;;8.04;100.00;101445.47;6183177;28;20500;-67
2023/02/02 05:41:28;;;;;;;4.27;1.80;;;;;;;8.21;100.00;101440.75;6176436;28;20312;-68
2023/02/02 05:44:49;;;;;;;3.90;3.07;;;;;;;8.18;100.00;101451.72;6185468;28;20217;-67
2023/02/02 05:48:13;;;;;;;6.03;1.83;;;;;;;8.05;100.00;101439.13;6184911;28;20229;-68
2023/02/02 05:51:39;;;;;;;7.50;2.10;;;;;;;8.24;100.00;101443.25;6169376;28;20234;-68
2023/02/02 05:55:01;;;;;;;6.80;2.33;;;;;;;8.20;100.00;101447.94;6173052;28;20264;-68
2023/02/02 05:58:22;;;;;;;4.60;2.83;;;;;;;8.18;100.00;101451.72;6182646;28;20233;-69
2023/02/02 06:01:43;;;;;;;5.60;2.60;;;;;;;8.15;100.00;101442.06;6170149;28;20251;-69
2023/02/02 06:05:04;;;;;;;5.83;2.07;;;;;;;8.22;100.00;101454.06;6180853;28;21256;-68
2023/02/02 06:08:25;;;;;;;7.97;3.60;;;;;;;8.41;100.00;101469.78;6164182;28;20764;-69
2023/02/02 06:11:47;;;;;;;10.50;4.30;;;;;;;8.22;100.00;101459.44;6175254;28;20245;-68
2023/02/02 06:15:10;;;;;;;12.50;3.80;;;;;;;8.38;100.00;101451.22;6178976;28;20238;-68
2023/02/02 06:18:31;;;;;;;13.07;3.13;;;;;;;8.23;100.00;101479.09;6185897;28;20238;-68
2023/02/02 06:21:52;;;;;;;26.00;5.67;;;;;;;8.35;100.00;101476.47;6180449;28;20221;-68
2023/02/02 06:25:13;;;;;;;9.93;2.40;;;;;;;8.44;100.00;101473.13;6176406;28;20229;-69
2023/02/02 06:28:35;;;;;;;7.07;3.93;;;;;;;8.52;100.00;101483.34;6181303;28;20261;-68
2023/02/02 06:31:56;;;;;;;9.33;5.13;;;;;;;8.66;100.00;101492.13;6178835;28;20528;-68
2023/02/02 06:35:17;;;;;;;3.63;2.80;;;;;;;8.46;100.00;101492.69;6154533;28;20254;-69
2023/02/02 06:38:38;;;;;;;11.77;3.30;;;;;;;8.41;100.00;101492.16;6159718;28;20234;-68
2023/02/02 06:41:59;;;;;;;6.43;2.90;;;;;;;8.60;100.00;101508.69;6162989;28;20234;-69
2023/02/02 06:45:21;;;;;;;11.43;4.37;;;;;;;8.45;100.00;101525.06;6147589;28;20472;-69
2023/02/02 06:48:42;;;;;;;13.53;3.03;;;;;;;8.07;100.00;101525.81;6169545;28;20238;-68
2023/02/02 06:52:03;;;;;;;5.83;1.87;;;;;;;8.63;100.00;101526.44;6166952;28;20230;-69
2023/02/02 06:55:25;;;;;;;7.60;2.47;;;;;;;8.31;100.00;101525.13;6173749;28;20246;-68
2023/02/02 06:58:45;;;;;;;3.23;2.93;;;;;;;8.34;100.00;101524.94;6166503;28;20241;-68
2023/02/02 07:02:11;;;;;;;19.87;5.27;;;;;;;8.23;100.00;101535.50;6170387;28;20287;-69
2023/02/02 07:05:32;;;;;;;4.90;3.67;;;;;;;8.17;100.00;101538.63;6174576;28;20581;-69
2023/02/02 07:08:53;;;;;;;3.57;2.10;;;;;;;8.36;100.00;101550.72;6151594;28;20226;-67
2023/02/02 07:12:14;;;;;;;12.00;3.40;;;;;;;8.55;100.00;101551.16;6145294;28;20794;-68
2023/02/02 07:15:37;;;;;;;15.77;2.80;;;;;;;8.24;100.00;101551.50;6175319;28;20376;-68
2023/02/02 07:19:00;;;;;;;9.67;2.43;;;;;;;8.32;100.00;101561.78;6181466;28;21552;-67
2023/02/02 07:22:21;;;;;;;4.03;1.90;;;;;;;8.34;98.99;101568.78;6174609;28;20233;-66
2023/02/02 07:25:42;;;;;;;5.37;2.07;;;;;;;8.36;99.31;101569.53;6166153;28;20234;-68
2023/02/02 07:29:03;;;;;;;11.97;3.50;;;;;;;8.06;100.00;101571.56;6176983;28;20305;-68
2023/02/02 07:32:24;;;;;;;10.40;2.37;;;;;;;8.43;100.00;101575.31;6173889;28;20228;-68
2023/02/02 07:35:46;;;;;;;8.10;2.57;;;;;;;8.34;100.00;101587.56;6157625;28;20226;-64
2023/02/02 07:39:08;;;;;;;9.00;4.50;;;;;;;8.13;100.00;101585.44;6184783;28;20229;-68
2023/02/02 07:42:29;;;;;;;13.73;6.13;;;;;;;8.44;100.00;101582.41;6177152;28;20242;-68
2023/02/02 07:45:50;;;;;;;6.40;4.80;;;;;;;8.45;100.00;101593.06;6169397;28;20221;-69
2023/02/02 07:49:13;;;;;;;13.10;4.10;;;;;;;8.78;100.00;101588.03;6193019;28;20275;-69
2023/02/02 07:52:35;;;;;;;7.50;2.20;;;;;;;8.51;100.00;101606.06;6182401;28;21667;-70
2023/02/02 07:56:08;;;;;;;15.63;4.00;;;;;;;8.55;100.00;101606.75;6169853;28;20329;-67
2023/02/02 07:59:29;;;;;;;7.97;3.20;;;;;;;8.51;99.54;101616.81;6175746;28;20243;-69
2023/02/02 08:02:51;;;;;;;5.23;3.60;;;;;;;8.63;100.00;101625.88;6185988;28;20683;-68
2023/02/02 08:06:17;;;;;;;6.10;3.83;;;;;;;8.59;99.44;101627.06;6169011;28;20626;-69
2023/02/02 08:09:39;;;;;;;6.30;2.87;;;;;;;8.50;99.81;101630.38;6194206;28;20230;-69
2023/02/02 08:13:00;;;;;;;10.13;3.23;;;;;;;8.53;100.00;101633.69;6181908;28;20221;-69
2023/02/02 08:16:22;;;;;;;3.57;2.10;;;;;;;9.16;97.38;101643.63;6173329;28;20238;-67
2023/02/02 08:19:43;;;;;;;15.97;5.13;;;;;;;9.15;97.07;101647.31;6185392;28;20233;-67
2023/02/02 08:23:04;;;;;;;4.03;2.53;;;;;;;9.29;95.50;101650.75;6165981;28;20854;-68
2023/02/02 08:26:27;;;;;;;6.80;3.97;;;;;;;9.16;95.85;101654.38;6142788;28;20291;-68
2023/02/02 08:29:48;;;;;;;3.43;2.00;;;;;;;9.35;95.28;101668.25;6163822;28;20546;-68
2023/02/02 08:33:09;;;;;;;3.57;2.23;;;;;;;9.25;95.27;101672.59;6157613;28;20260;-68
2023/02/02 08:36:34;;;;;;;4.30;2.67;;;;;;;9.15;94.85;101682.28;6165618;28;20257;-70
2023/02/02 08:39:56;;;;;;;10.53;2.03;;;;;;;9.53;93.27;101677.75;6164977;28;20329;-69
2023/02/02 08:43:18;;;;;;;11.70;4.97;;;;;;;9.48;92.81;101671.81;6185633;28;20324;-68
2023/02/02 08:46:39;;;;;;;4.37;2.10;;;;;;;9.68;92.41;101677.47;6159239;28;20316;-69
2023/02/02 08:50:00;;;;;;;8.80;3.40;;;;;;;9.75;92.16;101679.72;6180929;28;20234;-68
2023/02/02 08:53:22;;;;;;;8.50;3.10;;;;;;;9.60;92.68;101687.06;6190385;28;20271;-69
2023/02/02 08:56:43;;;;;;;7.93;1.83;;;;;;;10.12;89.45;101679.66;6170328;28;20245;-69
2023/02/02 09:00:06;;;;;;;7.87;2.37;;;;;;;12.39;79.81;101691.28;6176399;28;20242;-69
2023/02/02 09:03:27;;;;;;;7.43;2.03;;;;;;;15.11;65.76;101689.31;6176813;28;20229;-68
2023/02/02 09:06:48;;;;;;;6.33;3.37;;;;;;;16.60;57.79;101700.84;6170369;28;20562;-67
2023/02/02 09:10:10;;;;;;;7.17;2.53;;;;;;;17.22;53.46;101700.72;6171213;28;20233;-67
2023/02/02 09:13:31;;;;;;;4.03;1.80;;;;;;;17.92;50.20;101707.00;6166388;28;20244;-68
2023/02/02 09:16:53;;;;;;;6.67;1.37;;;;;;;17.22;50.83;101706.19;6178740;28;20302;-67
2023/02/02 09:20:14;;;;;;;4.73;1.93;;;;;;;14.36;60.24;101719.88;6182422;28;20282;-68
2023/02/02 09:23:37;;;;;;;3.70;1.73;;;;;;;17.07;51.15;101724.09;6184943;28;20234;-67
2023/02/02 09:26:58;;;;;;;3.45;1.38;;;;;;;17.87;47.32;101726.56;6168849;28;20599;-68
2023/02/02 09:30:19;;;;;;;3.67;2.20;;;;;;;17.82;45.44;101731.66;6174632;28;20234;-69
2023/02/02 09:33:42;;;;;;;8.25;2.67;;;;;;;19.39;42.93;101738.06;6166080;28;20241;-67
2023/02/02 09:37:03;;;;;;;1.25;1.05;;;;;;;19.84;40.95;101749.28;6169217;28;21152;-68
2023/02/02 09:40:26;;;;;;;3.50;1.77;;;;;;;20.08;39.15;101751.09;6156642;28;20234;-67
2023/02/02 09:43:54;;;;;;;3.42;1.60;;;;;;;20.01;38.45;101758.28;6152099;28;20326;-68
2023/02/02 09:47:20;;;;;;;4.10;1.40;;;;;;;21.00;36.78;101762.09;6167806;28;20233;-68
2023/02/02 09:50:47;;;;;;;4.93;1.85;;;;;;;21.05;36.21;101762.47;6171466;28;20241;-68
2023/02/02 09:54:18;;;;;;;3.53;1.65;;;;;;;21.66;35.57;101769.63;6161932;28;20336;-68
2023/02/02 09:57:44;;;;;;;4.18;1.58;;;;;;;21.23;36.65;101761.13;6144971;28;20229;-67
2023/02/02 10:01:09;;;;;;;3.85;1.45;;;;;;;21.66;34.93;101759.50;6153326;28;20260;-68
2023/02/02 10:04:35;;;;;;;7.63;1.38;;;;;;;22.25;34.31;101776.91;6179972;28;20225;-68
2023/02/02 10:08:05;;;;;;;3.70;1.48;;;;;;;22.77;33.14;101768.53;6164993;28;20229;-67
2023/02/02 10:11:33;;;;;;;2.50;1.30;;;;;;;22.26;33.14;101779.47;6135606;28;20228;-68
2023/02/02 10:14:57;;;;;;;2.28;0.95;;;;;;;23.37;31.54;101788.25;6173472;28;20254;-68
2023/02/02 10:18:26;;;;;;;5.68;1.13;;;;;;;22.87;32.03;101786.41;6170572;28;20671;-65
2023/02/02 10:21:54;;;;;;;3.58;1.42;;;;;;;22.83;32.62;101796.09;6177849;28;20364;-68
2023/02/02 10:25:17;;;;;;;4.82;1.67;;;;;;;21.98;33.52;101800.41;6171767;28;20234;-69
2023/02/02 10:28:44;;;;;;;8.77;1.65;;;;;;;22.49;32.65;101797.75;6170924;28;20230;-68
2023/02/02 10:32:21;;;;;;;4.00;1.73;;;;;;;22.30;33.19;101815.66;6138986;28;20257;-68
2023/02/02 10:35:48;;;;;;;8.02;2.03;;;;;;;23.24;31.30;101815.59;6147768;28;20229;-67
2023/02/02 10:39:21;;;;;;;4.90;1.23;;;;;;;23.37;31.01;101823.16;6167823;28;20260;-68
2023/02/02 10:46:38;;;;;;;2.08;1.13;;;;;;;18.81;37.54;101850.22;6153817;28;20522;-70
2023/02/02 10:50:14;;;;;;;4.63;1.83;;;;;;;19.69;36.92;101860.50;6186889;28;20793;-67
2023/02/02 10:53:35;;;;;;;2.67;1.50;;;;;;;19.55;36.35;101858.41;6174240;28;20237;-67
2023/02/02 10:57:00;;;;;;;4.38;1.90;;;;;;;20.64;35.36;101858.59;6161345;28;20220;-67
2023/02/02 11:00:28;;;;;;;2.88;2.20;;;;;;;16.82;42.71;101861.06;6148621;28;20631;-68
2023/02/02 11:06:48;;;;;;;6.00;2.30;;;;;;;19.42;38.66;101860.81;6135678;28;20286;-69
2023/02/02 11:07:30;;;;;;;6.25;1.67;;;;;;;17.99;38.75;101879.94;6166341;28;20348;-68
2023/02/02 11:10:54;;;;;;;4.20;1.88;;;;;;;16.62;43.09;101884.84;6158400;28;21202;-69
2023/02/02 11:14:20;;;;;;;3.63;2.25;;;;;;;20.41;35.87;101876.84;6174611;28;20305;-68
2023/02/02 11:17:42;;;;;;;4.70;1.20;;;;;;;18.51;37.42;101889.88;6167345;28;21322;-68
2023/02/02 11:21:15;;;;;;;1.35;1.25;;;;;;;19.11;37.91;101877.81;6152514;28;20235;-68
2023/02/02 11:24:45;;;;;;;2.67;2.47;;;;;;;16.29;42.56;101889.97;6170332;28;20663;-69
2023/02/02 11:28:12;;;;;;;2.67;2.13;;;;;;;16.87;40.64;101886.00;6170198;28;20224;-69
2023/02/02 11:31:36;;;;;;;4.72;1.20;;;;;;;18.68;37.65;101890.81;6158302;28;20234;-68
2023/02/02 11:35:20;;;;;;;6.63;2.22;;;;;;;15.65;44.08;101879.75;6175844;28;21980;-67
2023/02/02 11:38:41;;;;;;;6.22;1.65;;;;;;;16.32;44.33;101889.66;6148095;28;20230;-68
2023/02/02 11:42:06;;;;;;;4.30;1.47;;;;;;;15.87;45.82;101890.31;6146520;28;20245;-68
2023/02/02 11:45:34;;;;;;;4.33;1.73;;;;;;;15.90;44.57;101892.75;6161125;28;20242;-68
2023/02/02 11:49:01;;;;;;;1.27;0.90;;;;;;;14.20;48.30;101889.53;6161695;28;20234;-68
2023/02/02 11:52:25;;;;;;;3.80;2.03;;;;;;;13.84;50.01;101896.28;6163599;28;20497;-68
2023/02/02 11:55:46;;;;;;;2.10;1.67;;;;;;;18.38;40.56;101880.38;6146435;28;20631;-67
2023/02/02 11:59:27;;;;;;;3.40;2.30;;;;;;;19.25;36.95;101886.38;6167259;28;20229;-68
2023/02/02 12:02:49;;;;;;;3.83;1.90;;;;;;;17.19;41.18;101899.16;6128844;28;20693;-69
2023/02/02 12:06:21;;;;;;;1.83;1.23;;;;;;;18.17;40.04;101891.66;6147441;28;20230;-68
2023/02/02 12:09:43;;;;;;;1.73;1.00;;;;;;;17.41;40.28;101898.69;6152966;28;20320;-68
2023/02/02 12:13:09;;;;;;;2.30;1.20;;;;;;;16.59;42.51;101900.59;6160777;28;20219;-68
2023/02/02 12:16:43;;;;;;;2.50;1.60;;;;;;;16.85;42.50;101900.78;6164507;28;20245;-69
2023/02/02 12:20:16;;;;;;;1.50;0.77;;;;;;;15.27;44.64;101900.63;6158697;28;20237;-68
2023/02/02 12:23:54;;;;;;;1.17;1.07;;;;;;;16.56;42.54;101909.09;6170367;28;20233;-67
2023/02/02 12:27:25;;;;;;;3.37;1.00;;;;;;;15.79;44.26;101913.84;6146729;28;20230;-67
2023/02/02 12:30:53;;;;;;;2.73;1.30;;;;;;;16.78;41.78;101908.69;6150509;28;20525;-70
2023/02/02 12:34:25;;;;;;;2.13;1.10;;;;;;;18.38;38.33;101905.78;6147962;28;20305;-70
2023/02/02 12:37:58;;;;;;;7.53;1.73;;;;;;;19.31;35.65;101904.84;6143456;28;20628;-67
2023/02/02 12:41:33;;;;;;;0.93;0.93;;;;;;;15.23;42.83;101914.47;6150731;28;20225;-68
2023/02/02 12:45:21;;;;;;;4.20;1.20;;;;;;;14.89;44.65;101907.69;6168068;28;20235;-68
2023/02/02 12:49:00;;;;;;;2.27;0.80;;;;;;;16.51;41.64;101908.66;6171906;28;20242;-68
2023/02/02 12:52:38;;;;;;;2.47;1.03;;;;;;;19.83;35.51;101907.19;6172637;28;20228;-69
2023/02/02 12:56:09;;;;;;;1.30;0.70;;;;;;;18.43;37.69;101906.19;6165095;28;20630;-69
2023/02/02 12:59:55;;;;;;;7.07;2.23;;;;;;;15.61;43.47;101919.13;6165412;28;20235;-66
2023/02/02 13:03:28;;;;;;;1.03;0.97;;;;;;;15.02;45.44;101921.00;6177007;28;20608;-68
2023/02/02 13:07:10;;;;;;;1.77;1.00;;;;;;;16.79;42.27;101918.59;6176517;28;20225;-68
2023/02/02 13:10:36;;;;;;;2.73;1.30;;;;;;;18.67;38.07;101910.97;6184820;28;20233;-68
2023/02/02 13:14:01;;;;;;;4.57;3.33;;;;;;;18.64;37.43;101916.72;6163623;28;20229;-67
2023/02/02 13:17:28;;;;;;;1.77;1.03;;;;;;;16.76;39.96;101927.03;6172224;28;20225;-69
2023/02/02 13:20:55;;;;;;;2.83;1.00;;;;;;;16.72;40.59;101922.91;6154458;28;20623;-68
2023/02/02 13:24:24;;;;;;;2.53;1.63;;;;;;;16.74;40.86;101915.44;6180292;28;20230;-68
2023/02/02 13:27:48;;;;;;;7.87;1.27;;;;;;;16.58;41.42;101924.25;6181151;28;20233;-68
2023/02/02 13:31:16;;;;;;;2.10;1.83;;;;;;;16.73;40.44;101930.06;6169762;28;20241;-68
2023/02/02 13:34:43;;;;;;;6.77;1.40;;;;;;;15.89;41.73;101925.56;6189895;28;20245;-68
2023/02/02 13:38:15;;;;;;;1.40;1.23;;;;;;;15.50;42.63;101927.41;6175830;28;20222;-68
2023/02/02 13:41:37;;;;;;;1.33;0.90;;;;;;;15.89;42.35;101933.72;6155648;28;20245;-70
2023/02/02 13:45:05;;;;;;;1.77;1.30;;;;;;;15.88;41.79;101924.69;6173360;28;20573;-67
2023/02/02 13:48:36;;;;;;;1.20;1.00;;;;;;;16.01;48.85;101940.72;6173964;28;20229;-68
2023/02/02 13:52:14;;;;;;;3.77;1.03;;;;;;;14.71;45.86;101943.75;6165928;28;20237;-71
2023/02/02 13:55:56;;;;;;;1.97;0.90;;;;;;;15.26;44.87;101936.94;6172264;28;20249;-68
2023/02/02 13:59:35;;;;;;;1.60;1.07;;;;;;;14.98;44.85;101935.84;6174700;28;20245;-69
2023/02/02 14:02:59;;;;;;;4.43;1.07;;;;;;;15.18;42.96;101933.06;6178962;28;20328;-68
2023/02/02 14:06:22;;;;;;;8.33;1.07;;;;;;;15.21;43.23;101945.50;6155281;28;20237;-69
2023/02/02 14:09:42;;;;;;;2.87;0.70;;;;;;;15.03;43.41;101949.88;6177070;28;20604;-69
2023/02/02 14:17:01;;;;;;;1.10;0.90;;;;;;;14.16;43.66;101951.28;6159326;28;20221;-67
2023/02/02 14:20:46;;;;;;;2.23;0.70;;;;;;;14.09;43.89;101952.81;6175754;28;20234;-69
2023/02/02 14:24:40;;;;;;;1.50;1.00;;;;;;;13.45;45.86;101960.16;6180453;28;20545;-70
2023/02/02 14:28:03;;;;;;;6.20;0.93;;;;;;;13.45;46.10;101951.16;6172873;28;20237;-71
2023/02/02 14:31:40;;;;;;;0.77;0.67;;;;;;;13.38;45.90;101966.19;6157835;28;20245;-69
2023/02/02 14:35:44;;;;;;;2.47;0.57;;;;;;;13.24;46.89;101961.94;6180187;28;20320;-71
2023/02/02 14:39:21;;;;;;;1.10;0.70;;;;;;;12.71;48.62;101968.97;6174935;28;20233;-69
2023/02/02 14:46:37;;;;;;;1.90;1.40;;;;;;;12.52;48.81;101984.94;6172073;28;20253;-69
2023/02/02 14:49:58;;;;;;;1.53;1.00;;;;;;;12.33;50.47;101987.38;6188641;28;20596;-73
2023/02/02 14:53:27;;;;;;;1.73;0.93;;;;;;;12.33;50.82;101998.19;6184271;28;20599;-69
2023/02/02 14:56:53;;;;;;;1.73;0.60;;;;;;;11.82;52.01;102003.09;6167295;28;20418;-69
2023/02/02 15:00:21;;;;;;;4.10;0.70;;;;;;;12.40;50.69;102003.97;6180627;28;20241;-69
2023/02/02 15:03:51;;;;;;;4.33;1.37;;;;;;;12.22;51.13;102017.09;6158924;28;20230;-69
2023/02/02 15:07:50;;;;;;;2.70;1.10;;;;;;;12.12;52.80;102017.94;6165439;28;20233;-69
2023/02/02 15:11:30;;;;;;;1.33;0.80;;;;;;;11.66;53.19;102021.41;6145503;28;20257;-68
2023/02/02 15:14:57;;;;;;;0.90;0.60;;;;;;;11.67;53.63;102027.69;6171446;28;20283;-69
2023/02/02 15:18:26;;;;;;;3.07;2.07;;;;;;;11.75;54.18;102030.66;6169501;28;20257;-69
2023/02/02 15:21:52;;;;;;;3.00;0.90;;;;;;;11.92;53.22;102030.25;6163352;28;20240;-68
2023/02/02 15:25:19;;;;;;;2.80;1.37;;;;;;;11.96;53.60;102038.03;6162908;28;20223;-68
2023/02/02 15:28:44;;;;;;;3.13;1.03;;;;;;;12.02;53.07;102044.78;6184839;28;20235;-69
2023/02/02 15:32:06;;;;;;;1.70;0.90;;;;;;;11.93;54.07;102045.50;6174003;28;20322;-68
2023/02/02 15:35:30;;;;;;;2.53;1.43;;;;;;;11.61;55.21;102057.81;6181858;28;20233;-69
2023/02/02 15:38:54;;;;;;;1.50;1.03;;;;;;;11.54;56.54;102067.34;6179928;28;20230;-68
2023/02/02 15:46:04;;;;;;;2.30;1.37;;;;;;;11.21;57.89;102063.44;6175778;28;20233;-69
2023/02/02 15:49:31;;;;;;;1.77;1.30;;;;;;;11.05;58.15;102070.94;6189247;28;20228;-68
2023/02/02 15:52:53;;;;;;;4.10;1.00;;;;;;;10.89;58.71;102078.38;6160717;28;20230;-68
2023/02/02 15:56:21;;;;;;;1.40;1.30;;;;;;;11.19;57.78;102078.91;6166952;28;20606;-68
2023/02/02 15:59:42;;;;;;;1.60;0.87;;;;;;;11.06;57.95;102096.06;6190710;28;20238;-68
2023/02/02 16:03:07;;;;;;;2.20;2.00;;;;;;;11.05;58.40;102097.03;6183134;28;20346;-68
2023/02/02 16:06:29;;;;;;;2.37;1.10;;;;;;;11.14;58.12;102097.25;6164909;28;20233;-69
2023/02/02 16:09:55;;;;;;;3.47;1.23;;;;;;;10.90;58.78;102112.50;6163516;28;20237;-69
2023/02/02 16:13:27;;;;;;;1.53;1.00;;;;;;;10.95;65.75;102114.88;6176572;28;20222;-70
2023/02/02 16:16:49;;;;;;;1.60;0.90;;;;;;;11.63;63.25;102109.88;6155781;28;20222;-71
2023/02/02 16:20:14;;;;;;;4.00;1.63;;;;;;;12.47;65.17;102116.13;6181163;28;20237;-70